.
WxDataArchive / Data Records for 2016-04-24
2016-04-23 April 2016 2016-04-25

Data Records for Sunday, 24 April 2016

Time	Temp	Chill	HIndex	Humid	Dewpt	 Wind 	HiWind	WindDir	Rain 	Barom
-----	----	-----	------	-----	-----	------	------	-------	-----	-----
00:00	45.1	45.1	45.1	64	33.7	0	0	---	0.00	30.087 
00:05	44.9	44.9	44.9	64	33.5	0	0	---	0.00	30.087 
00:10	44.6	44.6	44.6	64	33.2	0	0	---	0.00	30.087 
00:15	44.5	44.5	44.5	67	34.2	0	0	---	0.00	30.086 
00:20	44.2	44.2	44.2	68	34.3	0	0	---	0.00	30.086 
00:25	43.9	43.9	43.9	68	34.0	0	0	---	0.00	30.086 
00:30	43.8	43.8	43.8	69	34.3	0	0	---	0.00	30.086 
00:35	43.5	43.5	43.5	69	34.0	0	0	---	0.00	30.086 
00:40	43.3	43.3	43.3	70	34.2	0	0	---	0.00	30.086 
00:45	43.1	43.1	43.1	70	34.0	0	0	---	0.00	30.087 
00:50	42.9	42.9	42.9	72	34.5	0	0	---	0.00	30.087 
00:55	42.9	42.9	42.9	73	34.9	0	0	---	0.00	30.087 
01:00	42.8	42.8	42.8	73	34.8	0	0	---	0.00	30.085 
01:05	42.6	42.6	42.6	73	34.6	0	0	---	0.00	30.085 
01:10	42.6	42.6	42.6	74	34.9	0	0	---	0.00	30.085 
01:15	42.5	42.5	42.5	74	34.8	0	0	---	0.00	30.080 
01:20	42.3	42.3	42.3	74	34.6	0	0	---	0.00	30.080 
01:25	42.2	42.2	42.2	75	34.9	0	0	---	0.00	30.080 
01:30	41.9	41.9	41.9	75	34.6	0	0	---	0.00	30.077 
01:35	41.9	41.9	41.9	76	34.9	0	0	---	0.00	30.077 
01:40	41.9	41.9	41.9	76	34.9	0	0	---	0.00	30.077 
01:45	41.8	41.8	41.8	76	34.8	0	0	---	0.00	30.073 
01:50	41.6	41.6	41.6	76	34.6	0	0	---	0.00	30.073 
01:55	41.5	41.5	41.5	76	34.5	0	0	---	0.00	30.073 
02:00	41.5	41.5	41.5	76	34.5	0	0	---	0.00	30.072 
02:05	41.3	41.3	41.3	76	34.3	0	0	---	0.00	30.072 
02:10	41.2	41.2	41.2	77	34.5	0	0	---	0.00	30.072 
02:15	41.2	41.2	41.2	77	34.5	0	0	---	0.00	30.071 
02:20	41.1	41.1	41.1	77	34.4	0	0	---	0.00	30.071 
02:25	41.1	41.1	41.1	78	34.8	0	0	---	0.00	30.071 
02:30	41.1	41.1	41.1	78	34.8	0	0	---	0.00	30.073 
02:35	41.1	41.1	41.1	78	34.8	0	0	---	0.00	30.073 
02:40	41.1	41.1	41.1	78	34.8	0	0	---	0.00	30.073 
02:45	40.9	40.9	40.9	78	34.6	0	0	---	0.00	30.072 
02:50	40.8	40.8	40.8	78	34.5	0	0	---	0.00	30.072 
02:55	40.6	40.6	40.6	78	34.3	0	0	---	0.00	30.072 
03:00	40.5	40.5	40.5	78	34.2	0	0	---	0.00	30.069 
03:05	40.3	40.3	40.3	79	34.3	0	0	---	0.00	30.069 
03:10	40.2	40.2	40.2	79	34.2	0	0	---	0.00	30.069 
03:15	40.1	40.1	40.1	79	34.1	0	0	---	0.00	30.069 
03:20	39.9	39.9	39.9	79	33.9	0	0	---	0.00	30.069 
03:25	39.8	39.8	39.8	79	33.8	0	0	---	0.00	30.069 
03:30	39.8	39.8	39.8	79	33.8	0	0	---	0.00	30.069 
03:35	39.9	39.9	39.9	79	33.9	0	0	---	0.00	30.069 
03:40	39.9	39.9	39.9	79	33.9	0	0	---	0.00	30.069 
03:45	39.8	39.8	39.8	79	33.8	0	0	---	0.00	30.069 
03:50	39.6	39.6	39.6	79	33.6	0	0	---	0.00	30.069 
03:55	39.5	39.5	39.5	80	33.9	0	0	---	0.00	30.069 
04:00	39.3	39.3	39.3	80	33.7	0	0	---	0.00	30.073 
04:05	39.2	39.2	39.2	80	33.6	0	0	---	0.00	30.073 
04:10	39.2	39.2	39.2	80	33.6	0	0	---	0.00	30.073 
04:15	39.1	39.1	39.1	81	33.8	0	0	---	0.00	30.073 
04:20	39.1	39.1	39.1	81	33.8	0	0	---	0.00	30.073 
04:25	38.9	38.9	38.9	81	33.6	0	0	---	0.00	30.073 
04:30	38.8	38.8	38.8	81	33.5	0	0	---	0.00	30.074 
04:35	38.8	38.8	38.8	81	33.5	0	0	---	0.00	30.074 
04:40	38.6	38.6	38.6	81	33.3	0	0	---	0.00	30.074 
04:45	38.6	38.6	38.6	81	33.3	0	0	---	0.00	30.071 
04:50	38.5	38.5	38.5	81	33.2	0	0	---	0.00	30.071 
04:55	38.3	38.3	38.3	81	33.0	0	0	---	0.00	30.071 
05:00	38.3	38.3	38.3	81	33.0	0	0	---	0.00	30.072 
05:05	38.2	38.2	38.2	81	32.9	0	0	---	0.00	30.072 
05:10	38.0	38.0	38.0	82	33.0	0	0	---	0.00	30.072 
05:15	37.9	37.9	37.9	82	32.9	0	0	---	0.00	30.075 
05:20	37.9	37.9	37.9	82	32.9	0	0	---	0.00	30.075 
05:25	37.8	37.8	37.8	82	32.8	0	0	---	0.00	30.075 
05:30	37.8	37.8	37.8	82	32.8	0	0	---	0.00	30.075 
05:35	37.6	37.6	37.6	82	32.6	0	0	---	0.00	30.075 
05:40	37.5	37.5	37.5	83	32.8	0	0	---	0.00	30.075 
05:45	37.5	37.5	37.5	83	32.8	0	0	---	0.00	30.080 
05:50	37.3	37.3	37.3	83	32.6	0	0	---	0.00	30.080 
05:55	37.3	37.3	37.3	83	32.6	0	0	---	0.00	30.080 
06:00	37.3	37.3	37.3	83	32.6	0	0	---	0.00	30.086 
06:05	37.3	37.3	37.3	83	32.6	0	0	---	0.00	30.086 
06:10	37.3	37.3	37.3	84	32.9	0	0	---	0.00	30.086 
06:15	37.5	37.5	37.5	84	33.1	0	0	---	0.00	30.086 
06:20	37.5	37.5	37.5	84	33.1	0	0	---	0.00	30.086 
06:25	37.6	37.6	37.6	84	33.2	0	0	---	0.00	30.086 
06:30	37.8	37.8	37.8	84	33.4	0	0	---	0.00	30.089 
06:35	37.8	37.8	37.8	84	33.4	0	0	---	0.00	30.089 
06:40	37.8	37.8	37.8	84	33.4	0	0	---	0.00	30.089 
06:45	37.6	37.6	37.6	84	33.2	0	0	---	0.00	30.089 
06:50	37.6	37.6	37.6	84	33.2	0	0	---	0.00	30.089 
06:55	37.6	37.6	37.6	84	33.2	0	0	---	0.00	30.089 
07:00	37.8	37.8	37.8	84	33.4	0	0	---	0.00	30.088 
07:05	38.0	38.0	38.0	83	33.3	0	1	112	0.00	30.088 
07:10	38.3	38.3	38.3	81	33.0	0	1	112	0.00	30.088 
07:15	38.6	38.6	38.6	81	33.3	0	0	---	0.00	30.088 
07:20	38.8	38.8	38.8	80	33.2	0	1	112	0.00	30.088 
07:25	39.1	39.1	39.1	79	33.1	0	1	112	0.00	30.088 
07:30	39.3	39.3	39.3	78	33.0	0	1	112	0.00	30.090 
07:35	39.5	39.5	39.5	78	33.2	0	3	112	0.00	30.090 
07:40	39.8	39.8	39.8	77	33.2	0	1	112	0.00	30.090 
07:45	40.1	40.1	40.1	77	33.5	0	2	112	0.00	30.100 
07:50	40.3	40.3	40.3	76	33.3	0	2	112	0.00	30.100 
07:55	40.9	40.9	40.9	75	33.6	0	1	112	0.00	30.100 
08:00	41.6	41.6	41.6	74	33.9	0	1	112	0.00	30.101 
08:05	42.3	42.3	42.3	73	34.3	1	2	112	0.00	30.101 
08:10	42.9	42.9	42.9	72	34.5	1	3	112	0.00	30.101 
08:15	43.5	43.5	43.5	70	34.4	1	4	112	0.00	30.102 
08:20	43.9	43.9	43.9	69	34.4	1	3	112	0.00	30.102 
08:25	44.3	44.3	44.3	69	34.8	1	2	112	0.00	30.102 
08:30	44.8	44.8	44.8	68	34.9	1	2	112	0.00	30.102 
08:35	45.4	45.4	45.4	67	35.1	0	2	112	0.00	30.102 
08:40	46.0	46.0	46.0	66	35.3	1	3	112	0.00	30.102 
08:45	46.4	46.4	46.4	65	35.3	1	3	112	0.00	30.101 
08:50	46.7	46.7	46.7	65	35.6	1	4	112	0.00	30.101 
08:55	47.1	47.1	47.1	65	35.9	1	3	112	0.00	30.101 
09:00	47.6	47.6	47.6	64	36.0	1	3	112	0.00	30.089 
09:05	47.9	47.9	47.9	63	35.9	2	4	112	0.00	30.089 
09:10	48.5	48.5	48.5	65	37.3	0	3	68	0.00	30.089 
09:15	49.1	49.1	49.1	64	37.5	1	3	90	0.00	30.085 
09:20	49.6	49.6	49.6	63	37.5	1	3	90	0.00	30.085 
09:25	50.4	50.4	50.4	62	37.9	1	3	135	0.00	30.085 
09:30	50.8	50.8	50.8	62	38.3	1	3	135	0.00	30.084 
09:35	51.4	51.4	51.4	61	38.4	0	3	135	0.00	30.084 
09:40	51.9	51.9	51.9	59	38.0	0	3	68	0.00	30.084 
09:45	52.3	52.3	52.3	59	38.4	1	4	90	0.00	30.082 
09:50	52.6	52.6	52.6	59	38.7	2	5	112	0.00	30.082 
09:55	53.1	53.1	53.1	58	38.7	1	4	90	0.00	30.082 
10:00	53.5	53.5	53.5	56	38.2	1	4	90	0.00	30.072 
10:05	53.8	53.8	53.8	58	39.4	1	4	90	0.00	30.072 
10:10	54.4	54.4	54.4	56	39.0	0	2	90	0.00	30.072 
10:15	55.3	55.3	55.3	58	40.8	0	2	90	0.00	30.066 
10:20	56.0	56.0	56.0	55	40.1	0	3	90	0.00	30.066 
10:25	56.6	56.6	56.6	52	39.2	1	3	90	0.00	30.066 
10:30	56.9	56.9	56.9	52	39.5	1	4	112	0.00	30.061 
10:35	56.9	56.9	56.9	53	39.9	1	3	112	0.00	30.061 
10:40	57.5	57.5	57.5	52	40.0	0	3	135	0.00	30.061 
10:45	58.3	58.3	58.3	52	40.8	1	4	112	0.00	30.051 
10:50	58.7	58.7	58.7	50	40.1	1	5	112	0.00	30.051 
10:55	58.7	58.7	58.7	50	40.1	2	7	90	0.00	30.051 
11:00	59.0	59.0	59.0	50	40.4	1	5	135	0.00	30.046 
11:05	59.6	59.6	59.6	50	40.9	1	4	135	0.00	30.046 
11:10	60.2	60.2	60.2	49	41.0	1	3	90	0.00	30.046 
11:15	60.7	60.7	60.7	49	41.4	1	3	90	0.00	30.044 
11:20	61.2	61.2	61.2	47	40.8	1	3	90	0.00	30.044 
11:25	61.6	61.6	61.6	49	42.3	1	4	90	0.00	30.044 
11:30	62.1	62.1	62.1	46	41.1	1	4	112	0.00	30.033 
11:35	62.4	62.4	62.4	46	41.3	1	2	135	0.00	30.033 
11:40	63.1	63.1	63.1	46	42.0	1	4	135	0.00	30.033 
11:45	63.2	63.2	63.2	47	42.6	1	3	112	0.00	30.030 
11:50	63.4	63.4	63.4	44	41.1	3	7	112	0.00	30.030 
11:55	63.7	63.7	63.7	42	40.2	2	6	135	0.00	30.030 
12:00	63.9	63.9	63.9	44	41.6	1	5	90	0.00	30.019 
12:05	64.3	64.3	64.3	50	45.3	0	3	45	0.00	30.019 
12:10	64.7	64.7	64.7	44	42.3	1	6	90	0.00	30.019 
12:15	65.0	65.0	65.0	44	42.6	1	6	112	0.00	30.003 
12:20	65.2	65.2	65.2	45	43.3	1	5	135	0.00	30.003 
12:25	65.3	65.3	65.3	43	42.2	2	5	135	0.00	30.003 
12:30	65.6	65.6	65.6	44	43.1	1	5	112	0.00	29.999 
12:35	66.0	66.0	66.0	45	44.0	1	3	112	0.00	29.999 
12:40	66.3	66.3	66.3	43	43.1	2	7	112	0.00	29.999 
12:45	66.0	66.0	66.0	43	42.9	2	5	90	0.00	30.003 
12:50	66.3	66.3	66.3	41	41.9	2	5	112	0.00	30.003 
12:55	66.4	66.4	66.4	43	43.2	1	4	68	0.00	30.003 
13:00	66.8	66.8	66.8	47	45.9	1	4	90	0.00	29.996 
13:05	67.3	67.3	67.3	44	44.6	1	3	90	0.00	29.996 
13:10	67.6	67.6	67.6	42	43.7	2	4	90	0.00	29.996 
13:15	67.4	67.4	67.4	44	44.7	1	3	112	0.00	29.999 
13:20	67.6	67.6	67.6	45	45.5	1	4	112	0.00	29.999 
13:25	67.9	67.9	67.9	43	44.6	1	3	90	0.00	29.999 
13:30	68.4	68.4	68.4	46	46.8	1	2	90	0.00	29.990 
13:35	68.8	68.8	68.8	44	46.0	1	6	112	0.00	29.990 
13:40	68.6	68.6	68.6	43	45.2	1	4	90	0.00	29.990 
13:45	68.3	68.3	68.3	45	46.1	1	6	90	0.00	29.987 
13:50	68.4	68.4	68.4	43	45.0	1	5	112	0.00	29.987 
13:55	68.6	68.6	68.6	45	46.4	1	4	90	0.00	29.987 
14:00	68.6	68.6	68.6	42	44.6	1	4	90	0.00	29.981 
14:05	68.9	68.9	68.9	44	46.1	1	5	202	0.00	29.981 
14:10	69.6	69.6	69.6	43	46.1	0	1	202	0.00	29.981 
14:15	70.1	70.1	70.1	42	45.9	0	2	202	0.00	29.978 
14:20	70.4	70.4	70.4	40	44.9	1	4	112	0.00	29.978 
14:25	70.6	70.6	70.6	41	45.7	1	5	112	0.00	29.978 
14:30	70.6	70.6	70.6	40	45.1	1	5	270	0.00	29.970 
14:35	70.8	70.8	70.8	43	47.2	0	2	270	0.00	29.970 
14:40	70.4	70.4	70.4	40	44.9	1	4	270	0.00	29.970 
14:45	70.3	70.3	70.3	43	46.7	0	3	270	0.00	29.965 
14:50	70.4	70.4	70.4	41	45.6	2	5	270	0.00	29.965 
14:55	70.3	70.3	70.3	40	44.8	1	4	90	0.00	29.965 
15:00	70.3	70.3	70.3	40	44.8	1	3	90	0.00	29.965 
15:05	70.4	70.4	70.4	43	46.8	0	3	90	0.00	29.965 
15:10	70.8	70.8	70.8	40	45.3	2	5	90	0.00	29.965 
15:15	71.1	71.1	71.1	43	47.5	0	3	90	0.00	29.958 
15:20	71.3	71.3	71.3	38	44.4	1	5	90	0.00	29.958 
15:25	71.1	71.1	71.1	38	44.2	1	4	112	0.00	29.958 
15:30	71.3	71.3	71.3	44	48.2	1	6	112	0.00	29.949 
15:35	71.6	71.6	71.6	43	47.9	1	2	112	0.00	29.949 
15:40	71.8	71.8	71.8	43	48.1	1	3	112	0.00	29.949 
15:45	72.0	72.0	72.0	43	48.3	1	3	112	0.00	29.947 
15:50	72.0	72.0	72.0	38	45.0	1	4	112	0.00	29.947 
15:55	72.0	72.0	72.0	41	47.0	1	3	112	0.00	29.947 
16:00	72.0	72.0	72.0	39	45.7	1	4	112	0.00	29.938 
16:05	71.8	71.8	71.8	41	46.8	1	5	112	0.00	29.938 
16:10	71.8	71.8	71.8	41	46.8	1	3	112	0.00	29.938 
16:15	72.0	72.0	72.0	39	45.7	1	3	112	0.00	29.933 
16:20	72.1	72.1	72.1	40	46.4	1	3	248	0.00	29.933 
16:25	72.3	72.3	72.3	43	48.5	1	4	90	0.00	29.933 
16:30	72.3	72.3	72.3	40	46.6	0	1	112	0.00	29.925 
16:35	72.5	72.5	72.5	38	45.4	0	2	112	0.00	29.925 
16:40	72.7	72.7	72.7	40	47.0	1	4	112	0.00	29.925 
16:45	72.8	72.8	72.8	39	46.4	1	3	112	0.00	29.920 
16:50	72.8	72.8	72.8	40	47.1	0	1	112	0.00	29.920 
16:55	73.0	73.0	73.0	38	45.9	0	2	112	0.00	29.920 
17:00	73.2	73.2	73.2	38	46.1	0	3	112	0.00	29.919 
17:05	73.0	73.0	73.0	37	45.2	0	2	112	0.00	29.919 
17:10	73.3	73.3	73.3	37	45.4	0	1	112	0.00	29.919 
17:15	73.9	73.9	73.9	40	48.0	0	0	---	0.00	29.916 
17:20	74.4	74.4	74.4	38	47.1	0	1	112	0.00	29.916 
17:25	74.4	74.4	74.4	38	47.1	0	3	112	0.00	29.916 
17:30	74.0	74.0	74.0	35	44.6	1	4	112	0.00	29.912 
17:35	73.9	73.9	73.9	37	46.0	0	3	112	0.00	29.912 
17:40	73.7	73.7	73.7	39	47.2	1	2	112	0.00	29.912 
17:45	73.7	73.7	73.7	41	48.5	0	1	112	0.00	29.905 
17:50	73.9	73.9	73.9	42	49.3	0	1	112	0.00	29.905 
17:55	74.2	74.2	74.2	39	47.6	0	1	112	0.00	29.905 
18:00	74.2	74.2	74.2	36	45.5	0	1	112	0.00	29.911 
18:05	73.9	73.9	73.9	37	46.0	0	1	112	0.00	29.911 
18:10	74.0	74.0	74.0	37	46.1	0	1	112	0.00	29.911 
18:15	73.7	73.7	73.7	38	46.5	0	1	112	0.00	29.909 
18:20	73.5	73.5	73.5	38	46.3	0	1	112	0.00	29.909 
18:25	73.3	73.3	73.3	37	45.4	0	1	112	0.00	29.909 
18:30	73.2	73.2	73.2	39	46.7	0	1	112	0.00	29.908 
18:35	73.0	73.0	73.0	40	47.2	0	0	---	0.00	29.908 
18:40	72.7	72.7	72.7	41	47.6	0	1	112	0.00	29.908 
18:45	72.3	72.3	72.3	41	47.3	0	1	112	0.00	29.907 
18:50	72.0	72.0	72.0	41	47.0	0	0	---	0.00	29.907 
18:55	71.8	71.8	71.8	42	47.5	0	0	---	0.00	29.907 
19:00	71.6	71.6	71.6	43	47.9	0	0	---	0.00	29.905 
19:05	71.5	71.5	71.5	42	47.2	0	0	---	0.00	29.905 
19:10	71.5	71.5	71.5	43	47.8	0	1	112	0.00	29.905 
19:15	71.5	71.5	71.5	42	47.2	0	0	---	0.00	29.900 
19:20	71.3	71.3	71.3	41	46.4	0	2	112	0.00	29.900 
19:25	71.3	71.3	71.3	41	46.4	0	0	---	0.00	29.900 
19:30	71.1	71.1	71.1	40	45.5	0	0	---	0.00	29.898 
19:35	70.9	70.9	70.9	42	46.6	0	0	---	0.00	29.898 
19:40	70.6	70.6	70.6	43	47.0	0	0	---	0.00	29.898 
19:45	70.4	70.4	70.4	42	46.2	0	0	---	0.00	29.899 
19:50	70.1	70.1	70.1	44	47.2	0	1	112	0.00	29.899 
19:55	69.8	69.8	69.8	44	46.9	0	0	---	0.00	29.899 
20:00	69.4	69.4	69.4	45	47.1	0	0	---	0.00	29.901 
20:05	69.1	69.1	69.1	46	47.4	0	0	---	0.00	29.901 
20:10	68.8	68.8	68.8	46	47.2	0	0	---	0.00	29.901 
20:15	68.3	68.3	68.3	48	47.8	0	0	---	0.00	29.893 
20:20	67.9	67.9	67.9	48	47.5	0	0	---	0.00	29.893 
20:25	67.4	67.4	67.4	49	47.6	0	0	---	0.00	29.893 
20:30	67.1	67.1	67.1	50	47.8	0	0	---	0.00	29.890 
20:35	66.6	66.6	66.6	50	47.4	0	0	---	0.00	29.890 
20:40	66.1	66.1	66.1	50	46.9	0	0	---	0.00	29.890 
20:45	65.8	65.8	65.8	51	47.2	0	0	---	0.00	29.892 
20:50	65.5	65.5	65.5	52	47.4	0	0	---	0.00	29.892 
20:55	65.2	65.2	65.2	53	47.6	0	0	---	0.00	29.892 
21:00	64.8	64.8	64.8	54	47.8	0	0	---	0.00	29.897 
21:05	64.5	64.5	64.5	54	47.5	0	0	---	0.00	29.897 
21:10	64.2	64.2	64.2	54	47.2	0	0	---	0.00	29.897 
21:15	64.0	64.0	64.0	55	47.5	0	0	---	0.00	29.893 
21:20	63.7	63.7	63.7	55	47.2	0	0	---	0.00	29.893 
21:25	63.4	63.4	63.4	56	47.4	0	0	---	0.00	29.893 
21:30	63.2	63.2	63.2	56	47.2	0	0	---	0.00	29.895 
21:35	62.9	62.9	62.9	57	47.4	0	0	---	0.00	29.895 
21:40	62.6	62.6	62.6	58	47.6	0	0	---	0.00	29.895 
21:45	62.4	62.4	62.4	58	47.4	0	0	---	0.00	29.898 
21:50	62.3	62.3	62.3	58	47.3	0	0	---	0.00	29.898 
21:55	62.1	62.1	62.1	59	47.6	0	0	---	0.00	29.898 
22:00	62.0	62.0	62.0	60	48.0	0	0	---	0.00	29.895 
22:05	61.6	61.6	61.6	60	47.6	0	0	---	0.00	29.895 
22:10	61.5	61.5	61.5	60	47.5	0	0	---	0.00	29.895 
22:15	61.3	61.3	61.3	59	46.8	0	0	---	0.00	29.889 
22:20	61.2	61.2	61.2	59	46.8	0	0	---	0.00	29.889 
22:25	61.0	61.0	61.0	61	47.5	0	0	---	0.00	29.889 
22:30	61.0	61.0	61.0	60	47.0	0	0	---	0.00	29.889 
22:35	61.0	61.0	61.0	59	46.6	0	0	---	0.00	29.889 
22:40	61.0	61.0	61.0	59	46.6	0	0	---	0.00	29.889 
22:45	61.0	61.0	61.0	58	46.1	0	0	---	0.00	29.887 
22:50	61.0	61.0	61.0	58	46.1	0	0	---	0.00	29.887 
22:55	60.9	60.9	60.9	58	46.0	0	0	---	0.00	29.887 
23:00	61.0	61.0	61.0	58	46.1	0	1	112	0.00	29.889 
23:05	61.0	61.0	61.0	58	46.1	0	1	112	0.00	29.889 
23:10	61.0	61.0	61.0	58	46.1	0	1	112	0.00	29.889 
23:15	60.9	60.9	60.9	57	45.6	0	2	112	0.00	29.883 
23:20	60.7	60.7	60.7	58	45.8	1	2	112	0.00	29.883 
23:25	60.7	60.7	60.7	58	45.8	1	4	112	0.00	29.883 
23:30	60.7	60.7	60.7	58	45.8	1	3	112	0.00	29.878 
23:35	60.5	60.5	60.5	58	45.6	0	1	112	0.00	29.878 
23:40	60.4	60.4	60.4	59	46.0	0	1	112	0.00	29.878 
23:45	60.1	60.1	60.1	60	46.2	1	2	112	0.00	29.877 
23:50	59.6	59.6	59.6	62	46.6	0	3	112	0.00	29.877 
23:55	59.0	59.0	59.0	64	46.8	1	2	112	0.00	29.877 

CoCoRaHS
IN-AL-39
A2 Web Hosting
Creative Commons License
GoDaddy
search engine by freefind advanced

loaded 2018-11-13 17:47:24 • last modified 2010-11-18 10:43:29
Privacy PolicyDisclaimer
• wx.awcolley.com is powered by PmWiki v.2002016 •
• all content (unless otherwise noted) © 2018 A W Colley